Time;durP1;ratioP1;P1;durP2;ratioP2;P2;SDS_P1;SDS_P2;PMS_P1;PMS_P2;Temp;Humidity;BMP_temperature;BMP_pressure;BME280_temperature;BME280_humidity;BME280_pressure;Samples;Min_cycle;Max_cycle;Signal;HPM_P1;HPM_P2
2022/03/14 00:01:36;;;;;;;;;;;10.10;65.50;;;;;;5085462;27;20039;-68
2022/03/14 00:04:04;;;;;;;;;;;10.10;65.20;;;;;;5102521;27;20336;-68
2022/03/14 00:06:30;;;;;;;;;;;10.10;65.80;;;;;;5087552;28;20651;-73
2022/03/14 00:08:57;;;;;;;;;;;10.20;66.70;;;;;;5087607;28;20010;-75
2022/03/14 00:11:26;;;;;;;;;;;10.20;68.00;;;;;;5092455;27;19922;-68
2022/03/14 00:13:55;;;;;;;;;;;10.20;68.00;;;;;;5105297;27;19923;-69
2022/03/14 00:16:25;;;;;;;;;;;10.20;69.00;;;;;;5114949;22;19923;-70
2022/03/14 00:18:52;;;;;;;;;;;10.20;69.70;;;;;;5076819;28;19924;-70
2022/03/14 00:21:20;;;;;;;;;;;10.20;70.90;;;;;;5068350;28;19930;-73
2022/03/14 00:23:46;;;;;;;;;;;10.20;71.70;;;;;;5049691;28;21795;-73
2022/03/14 00:26:11;;;;;;;;;;;10.20;72.60;;;;;;5053590;28;19920;-72
2022/03/14 00:28:37;;;;;;;;;;;10.10;73.80;;;;;;5060120;28;20030;-72
2022/03/14 00:31:03;;;;;;;;;;;10.10;74.40;;;;;;5062264;28;20593;-71
2022/03/14 00:33:28;;;;;;;;;;;10.10;74.20;;;;;;5059574;28;19924;-72
2022/03/14 00:35:56;;;;;;;;;;;10.10;75.10;;;;;;5060869;28;20523;-71
2022/03/14 00:38:24;;;;;;;;;;;10.10;75.30;;;;;;5058652;28;19965;-72
2022/03/14 00:40:53;;;;;;;;;;;10.10;76.50;;;;;;5062885;28;20505;-72
2022/03/14 00:43:19;;;;;;;;;;;10.10;80.00;;;;;;5081324;28;20482;-72
2022/03/14 00:46:00;;;;;;;;;;;10.10;80.90;;;;;;5071229;28;19973;-72
2022/03/14 00:48:43;;;;;;;;;;;10.10;79.90;;;;;;4884182;28;20953;-71
2022/03/14 00:51:18;;;;;;;;;;;10.10;82.00;;;;;;4952318;28;19939;-72
2022/03/14 00:53:49;;;;;;;;;;;10.10;80.60;;;;;;5073600;28;19982;-72
2022/03/14 00:56:19;;;;;;;;;;;10.10;81.60;;;;;;4916851;28;20538;-72
2022/03/14 00:58:47;;;;;;;;;;;10.10;80.70;;;;;;5029865;28;20223;-72
2022/03/14 01:01:13;;;;;;;;;;;9.90;80.90;;;;;;5064370;28;19945;-72
2022/03/14 01:03:38;;;;;;;;;;;10.10;81.30;;;;;;5058149;28;19920;-73
2022/03/14 01:06:04;;;;;;;;;;;10.10;82.50;;;;;;5050176;28;19923;-72
2022/03/14 01:08:29;;;;;;;;;;;10.00;82.60;;;;;;5079078;28;19924;-72
2022/03/14 01:10:55;;;;;;;;;;;10.00;83.40;;;;;;5081366;28;19920;-73
2022/03/14 01:13:20;;;;;;;;;;;10.10;83.60;;;;;;5076337;28;19927;-71
2022/03/14 01:15:47;;;;;;;;;;;9.90;83.30;;;;;;5042478;28;19945;-73
2022/03/14 01:18:13;;;;;;;;;;;9.90;83.50;;;;;;5053520;28;19916;-73
2022/03/14 01:20:39;;;;;;;;;;;9.90;85.50;;;;;;5078679;28;19931;-71
2022/03/14 01:23:04;;;;;;;;;;;9.80;86.00;;;;;;5059517;28;20412;-70
2022/03/14 01:25:30;;;;;;;;;;;9.80;86.80;;;;;;5056067;28;19920;-71
2022/03/14 01:27:56;;;;;;;;;;;9.90;88.50;;;;;;5062693;28;20012;-71
2022/03/14 01:30:22;;;;;;;;;;;9.80;88.40;;;;;;5062788;28;20406;-70
2022/03/14 01:32:47;;;;;;;;;;;9.80;88.00;;;;;;5061719;28;19916;-71
2022/03/14 01:35:13;;;;;;;;;;;9.80;89.50;;;;;;5058291;28;19946;-70
2022/03/14 01:37:38;;;;;;;;;;;9.80;89.40;;;;;;5062859;28;20027;-76
2022/03/14 01:40:06;;;;;;;;;;;9.80;90.10;;;;;;5062395;28;20341;-74
2022/03/14 01:42:31;;;;;;;;;;;9.80;90.90;;;;;;5056046;28;19923;-71
2022/03/14 01:44:57;;;;;;;;;;;9.80;91.30;;;;;;5078182;28;20094;-70
2022/03/14 01:47:44;;;;;;;;;;;9.80;91.30;;;;;;5066453;28;19916;-71
2022/03/14 01:50:10;;;;;;;;;;;9.80;91.60;;;;;;5049827;28;20269;-71
2022/03/14 01:52:36;;;;;;;;;;;9.70;92.20;;;;;;5083042;28;19995;-69
2022/03/14 01:55:02;;;;;;;;;;;9.70;92.30;;;;;;5075510;28;20459;-69
2022/03/14 01:57:28;;;;;;;;;;;9.70;93.60;;;;;;5056145;28;19916;-69
2022/03/14 01:59:54;;;;;;;;;;;9.70;93.60;;;;;;5058885;28;20387;-69
2022/03/14 02:02:19;;;;;;;;;;;9.70;94.90;;;;;;5057581;28;20262;-69
2022/03/14 02:04:45;;;;;;;;;;;9.70;95.20;;;;;;5071475;28;20031;-69
2022/03/14 02:07:11;;;;;;;;;;;9.70;95.80;;;;;;5058570;28;19939;-69
2022/03/14 02:09:36;;;;;;;;;;;9.70;96.30;;;;;;5064707;28;20878;-69
2022/03/14 02:12:02;;;;;;;;;;;9.60;96.30;;;;;;5081185;28;20253;-69
2022/03/14 02:14:27;;;;;;;;;;;9.70;97.40;;;;;;5045323;28;19920;-69
2022/03/14 02:16:53;;;;;;;;;;;9.70;97.70;;;;;;5066248;28;20524;-69
2022/03/14 02:19:18;;;;;;;;;;;9.70;97.80;;;;;;5075877;28;20100;-69
2022/03/14 02:21:44;;;;;;;;;;;9.70;97.80;;;;;;5081911;28;19916;-69
2022/03/14 02:24:10;;;;;;;;;;;9.70;99.20;;;;;;5081773;28;19923;-69
2022/03/14 02:26:39;;;;;;;;;;;9.70;99.90;;;;;;5062282;28;19920;-69
2022/03/14 02:29:05;;;;;;;;;;;9.70;99.90;;;;;;5064541;28;19923;-69
2022/03/14 02:31:31;;;;;;;;;;;9.70;99.80;;;;;;5079124;28;19916;-69
2022/03/14 02:33:56;;;;;;;;;;;9.70;99.70;;;;;;5077490;28;19955;-69
2022/03/14 02:36:22;;;;;;;;;;;9.70;99.90;;;;;;5065779;28;19923;-69
2022/03/14 02:38:47;;;;;;;;;;;9.70;99.90;;;;;;5085092;28;20395;-69
2022/03/14 02:41:13;;;;;;;;;;;9.70;99.60;;;;;;5066839;28;19927;-69
2022/03/14 02:43:39;;;;;;;;;;;9.70;99.90;;;;;;5060354;28;19951;-69
2022/03/14 02:46:04;;;;;;;;;;;9.70;99.70;;;;;;5064350;28;20364;-69
2022/03/14 02:48:31;;;;;;;;;;;9.70;99.80;;;;;;5083129;28;19930;-69
2022/03/14 02:50:57;;;;;;;;;;;9.70;99.90;;;;;;5074063;28;19931;-69
2022/03/14 02:53:22;;;;;;;;;;;9.70;99.90;;;;;;5063073;28;19921;-69
2022/03/14 02:55:48;;;;;;;;;;;9.70;99.90;;;;;;5046677;28;20272;-69
2022/03/14 02:58:14;;;;;;;;;;;9.70;99.90;;;;;;5047079;28;19916;-69
2022/03/14 03:00:39;;;;;;;;;;;9.70;99.90;;;;;;5078087;28;19920;-70
2022/03/14 03:03:06;;;;;;;;;;;9.70;99.90;;;;;;5062454;28;20374;-70
2022/03/14 03:05:32;;;;;;;;;;;9.70;99.90;;;;;;5082137;28;20312;-70
2022/03/14 03:08:03;;;;;;;;;;;9.70;99.90;;;;;;5066446;28;20353;-69
2022/03/14 03:10:28;;;;;;;;;;;9.70;99.90;;;;;;5061540;28;20010;-69
2022/03/14 03:12:54;;;;;;;;;;;9.70;99.90;;;;;;5062752;28;20424;-69
2022/03/14 03:15:20;;;;;;;;;;;9.70;99.90;;;;;;5081951;28;20400;-70
2022/03/14 03:17:46;;;;;;;;;;;9.70;99.90;;;;;;5061968;28;19924;-70
2022/03/14 03:20:12;;;;;;;;;;;9.70;99.90;;;;;;5075377;28;20014;-70
2022/03/14 03:22:38;;;;;;;;;;;9.60;99.90;;;;;;5056420;28;20134;-69
2022/03/14 03:25:04;;;;;;;;;;;9.60;99.90;;;;;;5059893;28;19993;-70
2022/03/14 03:27:31;;;;;;;;;;;9.60;99.90;;;;;;5058576;28;19920;-70
2022/03/14 03:29:57;;;;;;;;;;;9.70;99.90;;;;;;5065613;28;19920;-69
2022/03/14 03:32:22;;;;;;;;;;;9.70;99.90;;;;;;5059645;28;20351;-70
2022/03/14 03:34:48;;;;;;;;;;;9.60;99.90;;;;;;5061094;28;20050;-70
2022/03/14 03:37:14;;;;;;;;;;;9.60;99.90;;;;;;5070490;28;20423;-69
2022/03/14 03:39:39;;;;;;;;;;;9.60;99.90;;;;;;5069560;28;19916;-69
2022/03/14 03:42:05;;;;;;;;;;;9.60;99.90;;;;;;5060505;28;20302;-69
2022/03/14 03:44:31;;;;;;;;;;;9.50;99.90;;;;;;5079294;28;20010;-69
2022/03/14 03:46:56;;;;;;;;;;;9.60;99.90;;;;;;5065003;28;19924;-69
2022/03/14 03:49:22;;;;;;;;;;;9.60;99.90;;;;;;5062843;28;19977;-69
2022/03/14 03:51:47;;;;;;;;;;;9.60;99.90;;;;;;5044145;28;19930;-70
2022/03/14 03:54:13;;;;;;;;;;;9.50;99.90;;;;;;5081748;28;20328;-70
2022/03/14 03:56:38;;;;;;;;;;;9.50;99.90;;;;;;5056009;28;19916;-70
2022/03/14 03:59:04;;;;;;;;;;;9.60;99.90;;;;;;5060513;28;19963;-69
2022/03/14 04:01:30;;;;;;;;;;;9.60;99.90;;;;;;5081856;28;19927;-70
2022/03/14 04:03:58;;;;;;;;;;;9.60;99.90;;;;;;5079735;28;19920;-70
2022/03/14 04:06:30;;;;;;;;;;;9.60;99.90;;;;;;5062929;28;19950;-69
2022/03/14 04:08:56;;;;;;;;;;;9.60;99.90;;;;;;5058562;28;20380;-70
2022/03/14 04:11:22;;;;;;;;;;;9.60;99.90;;;;;;5064497;28;19942;-70
2022/03/14 04:13:48;;;;;;;;;;;9.60;99.90;;;;;;5081801;28;19924;-69
2022/03/14 04:16:17;;;;;;;;;;;9.60;99.90;;;;;;5047864;28;19922;-69
2022/03/14 04:18:43;;;;;;;;;;;9.60;99.90;;;;;;5058500;28;19947;-69
2022/03/14 04:21:09;;;;;;;;;;;9.50;99.90;;;;;;5061853;28;19967;-70
2022/03/14 04:23:34;;;;;;;;;;;9.50;99.90;;;;;;5081673;28;19992;-69
2022/03/14 04:26:00;;;;;;;;;;;9.50;99.90;;;;;;5064514;28;20308;-70
2022/03/14 04:28:25;;;;;;;;;;;9.50;99.90;;;;;;5061325;28;19927;-69
2022/03/14 04:30:51;;;;;;;;;;;9.50;99.90;;;;;;5058076;28;20292;-70
2022/03/14 04:33:16;;;;;;;;;;;9.50;99.90;;;;;;5059527;28;19924;-70
2022/03/14 04:35:42;;;;;;;;;;;9.50;99.90;;;;;;5073601;28;20445;-69
2022/03/14 04:38:08;;;;;;;;;;;9.50;99.90;;;;;;5082282;28;19919;-69
2022/03/14 04:40:34;;;;;;;;;;;9.50;99.90;;;;;;5077503;28;19917;-69
2022/03/14 04:43:04;;;;;;;;;;;9.50;99.90;;;;;;5071245;28;19915;-69
2022/03/14 04:45:29;;;;;;;;;;;9.60;99.90;;;;;;5075277;28;20537;-69
2022/03/14 04:47:55;;;;;;;;;;;9.60;99.90;;;;;;5062047;28;19951;-69
2022/03/14 04:50:20;;;;;;;;;;;9.60;99.90;;;;;;5045216;28;20028;-69
2022/03/14 04:52:46;;;;;;;;;;;9.60;99.90;;;;;;5061255;28;20392;-69
2022/03/14 04:55:11;;;;;;;;;;;9.70;99.90;;;;;;5062508;28;20014;-69
2022/03/14 04:57:37;;;;;;;;;;;9.60;99.90;;;;;;5064688;28;19920;-69
2022/03/14 05:00:07;;;;;;;;;;;9.60;99.90;;;;;;5044626;28;19916;-69
2022/03/14 05:02:35;;;;;;;;;;;9.60;99.90;;;;;;5078903;28;20400;-69
2022/03/14 05:05:01;;;;;;;;;;;9.60;99.90;;;;;;5083557;28;19922;-69
2022/03/14 05:07:26;;;;;;;;;;;9.60;99.90;;;;;;5059717;28;19916;-69
2022/03/14 05:09:52;;;;;;;;;;;9.60;99.90;;;;;;5075301;28;19951;-69
2022/03/14 05:12:18;;;;;;;;;;;9.60;99.90;;;;;;5076244;28;19999;-69
2022/03/14 05:14:43;;;;;;;;;;;9.60;99.90;;;;;;5082817;28;20429;-69
2022/03/14 05:17:10;;;;;;;;;;;9.60;99.90;;;;;;5059596;28;19930;-69
2022/03/14 05:19:36;;;;;;;;;;;9.60;99.90;;;;;;5049563;28;19920;-69
2022/03/14 05:22:01;;;;;;;;;;;9.60;99.90;;;;;;5064629;28;19920;-69
2022/03/14 05:24:27;;;;;;;;;;;9.60;99.90;;;;;;5065564;28;20002;-69
2022/03/14 05:26:54;;;;;;;;;;;9.60;99.90;;;;;;5059403;28;19947;-69
2022/03/14 05:29:20;;;;;;;;;;;9.60;99.90;;;;;;5049368;28;20364;-69
2022/03/14 05:31:45;;;;;;;;;;;9.70;99.90;;;;;;5077851;28;20018;-69
2022/03/14 05:34:11;;;;;;;;;;;9.70;99.90;;;;;;5081858;28;19926;-69
2022/03/14 05:36:37;;;;;;;;;;;9.70;99.90;;;;;;5059222;28;19998;-69
2022/03/14 05:39:03;;;;;;;;;;;9.80;99.90;;;;;;5055910;28;19920;-69
2022/03/14 05:41:29;;;;;;;;;;;9.80;99.90;;;;;;5059429;28;19920;-69
2022/03/14 05:43:54;;;;;;;;;;;9.80;99.90;;;;;;5065875;28;19922;-69
2022/03/14 05:46:20;;;;;;;;;;;9.80;99.90;;;;;;5068425;28;19965;-69
2022/03/14 05:48:45;;;;;;;;;;;9.90;99.90;;;;;;5082834;28;19920;-69
2022/03/14 05:51:11;;;;;;;;;;;9.90;99.90;;;;;;5048861;28;19927;-69
2022/03/14 05:53:36;;;;;;;;;;;9.90;99.90;;;;;;5085313;28;19919;-69
2022/03/14 05:56:02;;;;;;;;;;;9.90;99.90;;;;;;5045930;28;19916;-69
2022/03/14 05:58:27;;;;;;;;;;;9.90;99.90;;;;;;5080610;28;19916;-69
2022/03/14 06:00:53;;;;;;;;;;;9.90;99.90;;;;;;5068294;28;20424;-69
2022/03/14 06:03:20;;;;;;;;;;;9.90;99.90;;;;;;5064834;28;20375;-69
2022/03/14 06:05:47;;;;;;;;;;;9.90;99.90;;;;;;5052816;28;19924;-69
2022/03/14 06:08:13;;;;;;;;;;;9.90;99.90;;;;;;5061976;28;19947;-69
2022/03/14 06:10:39;;;;;;;;;;;9.90;99.90;;;;;;5067582;28;19956;-69
2022/03/14 06:13:04;;;;;;;;;;;9.90;99.90;;;;;;5081682;28;19982;-69
2022/03/14 06:15:30;;;;;;;;;;;9.90;99.90;;;;;;5099056;22;19947;-84
2022/03/14 06:17:55;;;;;;;;;;;9.90;99.90;;;;;;5038989;28;19955;-83
2022/03/14 06:20:21;;;;;;;;;;;10.00;99.90;;;;;;5024548;28;20382;-80
2022/03/14 06:22:46;;;;;;;;;;;9.90;99.90;;;;;;5027133;28;19920;-82
2022/03/14 06:25:13;;;;;;;;;;;10.00;99.90;;;;;;5024562;28;20433;-83
2022/03/14 06:27:39;;;;;;;;;;;10.00;99.90;;;;;;5036979;28;20434;-81
2022/03/14 06:30:05;;;;;;;;;;;10.00;99.90;;;;;;5059778;22;19946;-68
2022/03/14 06:32:35;;;;;;;;;;;10.00;99.90;;;;;;5071303;28;20694;-68
2022/03/14 06:35:01;;;;;;;;;;;10.10;99.90;;;;;;5088011;27;19988;-69
2022/03/14 06:37:26;;;;;;;;;;;10.00;99.90;;;;;;5114389;27;19965;-68
2022/03/14 06:39:52;;;;;;;;;;;10.10;99.90;;;;;;5097695;27;19999;-68
2022/03/14 06:42:19;;;;;;;;;;;10.10;99.90;;;;;;5110759;27;20366;-68
2022/03/14 06:44:44;;;;;;;;;;;10.00;99.90;;;;;;5094393;28;19916;-68
2022/03/14 06:47:11;;;;;;;;;;;10.00;99.90;;;;;;5109314;27;19938;-68
2022/03/14 06:49:37;;;;;;;;;;;10.00;99.90;;;;;;5094284;28;19972;-68
2022/03/14 06:52:04;;;;;;;;;;;10.00;99.90;;;;;;5113629;27;19916;-68
2022/03/14 06:54:29;;;;;;;;;;;10.00;99.90;;;;;;5098164;27;19922;-68
2022/03/14 06:56:55;;;;;;;;;;;10.10;99.90;;;;;;5096029;27;19919;-68
2022/03/14 06:59:21;;;;;;;;;;;10.00;99.90;;;;;;5090029;28;19916;-69
2022/03/14 07:01:46;;;;;;;;;;;10.10;99.90;;;;;;5111054;27;19917;-68
2022/03/14 07:04:12;;;;;;;;;;;10.00;99.90;;;;;;5090862;27;20213;-68
2022/03/14 07:06:37;;;;;;;;;;;10.00;99.90;;;;;;5115360;27;19916;-68
2022/03/14 07:09:04;;;;;;;;;;;10.00;99.90;;;;;;5082101;27;19958;-68
2022/03/14 07:11:30;;;;;;;;;;;10.00;99.90;;;;;;5090491;27;19922;-68
2022/03/14 07:13:58;;;;;;;;;;;10.10;99.90;;;;;;5082998;27;19925;-67
2022/03/14 07:16:23;;;;;;;;;;;10.10;99.90;;;;;;5091160;27;19919;-68
2022/03/14 07:18:49;;;;;;;;;;;10.10;99.90;;;;;;5074444;27;19919;-69
2022/03/14 07:21:14;;;;;;;;;;;10.10;99.90;;;;;;5104304;27;19919;-68
2022/03/14 07:23:40;;;;;;;;;;;10.10;99.90;;;;;;5086752;27;19955;-68
2022/03/14 07:26:08;;;;;;;;;;;10.10;99.90;;;;;;5086826;27;19919;-68
2022/03/14 07:28:34;;;;;;;;;;;10.10;99.90;;;;;;5092732;28;19916;-68
2022/03/14 07:30:59;;;;;;;;;;;10.10;99.90;;;;;;5091950;27;20437;-67
2022/03/14 07:33:25;;;;;;;;;;;10.10;99.90;;;;;;5089549;27;19923;-68
2022/03/14 07:35:51;;;;;;;;;;;10.10;99.90;;;;;;5090433;27;19938;-68
2022/03/14 07:38:19;;;;;;;;;;;10.10;99.90;;;;;;5111053;27;20282;-68
2022/03/14 07:40:45;;;;;;;;;;;10.10;99.90;;;;;;5059130;27;19923;-68
2022/03/14 07:43:11;;;;;;;;;;;10.10;99.90;;;;;;5093049;27;20767;-68
2022/03/14 07:45:37;;;;;;;;;;;10.20;99.90;;;;;;5086356;28;19919;-68
2022/03/14 07:48:02;;;;;;;;;;;10.10;99.90;;;;;;5090014;27;21241;-68
2022/03/14 07:50:28;;;;;;;;;;;10.20;99.90;;;;;;5110689;27;20064;-68
2022/03/14 07:52:55;;;;;;;;;;;10.10;99.90;;;;;;5092039;27;21934;-68
2022/03/14 07:55:21;;;;;;;;;;;10.20;99.90;;;;;;5091930;27;19939;-68
2022/03/14 07:57:46;;;;;;;;;;;10.20;99.90;;;;;;5111747;27;20470;-68
2022/03/14 08:00:13;;;;;;;;;;;10.10;99.90;;;;;;5099978;27;19922;-68
2022/03/14 08:02:39;;;;;;;;;;;10.20;99.90;;;;;;5114195;27;20353;-68
2022/03/14 08:05:05;;;;;;;;;;;10.20;99.90;;;;;;5113024;27;19918;-68
2022/03/14 08:07:31;;;;;;;;;;;10.20;99.90;;;;;;5090868;27;20370;-68
2022/03/14 08:09:56;;;;;;;;;;;10.30;99.90;;;;;;5091989;28;19947;-68
2022/03/14 08:12:22;;;;;;;;;;;10.30;99.90;;;;;;5089198;27;20279;-68
2022/03/14 08:14:49;;;;;;;;;;;10.20;99.90;;;;;;5116748;27;19941;-73
2022/03/14 08:17:15;;;;;;;;;;;10.30;99.90;;;;;;5090002;27;19946;-68
2022/03/14 08:19:40;;;;;;;;;;;10.30;99.90;;;;;;5087709;28;19915;-68
2022/03/14 08:22:06;;;;;;;;;;;10.20;99.90;;;;;;5094565;28;19978;-68
2022/03/14 08:24:32;;;;;;;;;;;10.20;99.90;;;;;;5098245;28;20021;-68
2022/03/14 08:26:58;;;;;;;;;;;10.20;99.90;;;;;;5098897;28;19966;-68
2022/03/14 08:29:24;;;;;;;;;;;10.20;99.90;;;;;;5096857;28;20057;-68
2022/03/14 08:31:49;;;;;;;;;;;10.20;99.90;;;;;;5086245;28;19970;-68
2022/03/14 08:34:15;;;;;;;;;;;10.20;99.90;;;;;;5093676;28;19963;-68
2022/03/14 08:36:40;;;;;;;;;;;10.30;99.90;;;;;;5091413;28;20065;-68
2022/03/14 08:39:07;;;;;;;;;;;10.30;99.90;;;;;;5093238;28;19923;-68
2022/03/14 08:41:32;;;;;;;;;;;10.20;99.90;;;;;;5102573;28;19969;-68
2022/03/14 08:43:58;;;;;;;;;;;10.20;99.90;;;;;;5093838;28;19959;-68
2022/03/14 08:46:23;;;;;;;;;;;10.10;99.90;;;;;;5104161;28;20397;-68
2022/03/14 08:48:49;;;;;;;;;;;10.10;99.90;;;;;;5107316;28;19960;-68
2022/03/14 08:51:15;;;;;;;;;;;10.10;99.90;;;;;;5103855;28;20260;-68
2022/03/14 08:53:41;;;;;;;;;;;10.00;99.90;;;;;;5098065;28;19919;-68
2022/03/14 08:56:06;;;;;;;;;;;9.90;99.90;;;;;;5096071;27;19989;-68
2022/03/14 08:58:33;;;;;;;;;;;10.00;99.90;;;;;;5096067;27;20003;-68
2022/03/14 09:00:59;;;;;;;;;;;9.90;99.90;;;;;;5105263;27;19915;-68
2022/03/14 09:03:25;;;;;;;;;;;9.90;99.90;;;;;;5096491;27;19922;-68
2022/03/14 09:05:51;;;;;;;;;;;9.90;99.90;;;;;;5098542;27;20264;-68
2022/03/14 09:08:18;;;;;;;;;;;9.90;99.90;;;;;;5110640;27;19923;-68
2022/03/14 09:10:45;;;;;;;;;;;9.90;99.90;;;;;;5113931;27;20383;-68
2022/03/14 09:13:11;;;;;;;;;;;9.90;99.90;;;;;;5110422;27;19916;-68
2022/03/14 09:15:37;;;;;;;;;;;9.80;99.90;;;;;;5092617;27;19961;-68
2022/03/14 09:18:03;;;;;;;;;;;9.80;99.90;;;;;;5111381;27;20108;-68
2022/03/14 09:20:29;;;;;;;;;;;9.70;99.90;;;;;;5073107;27;20068;-68
2022/03/14 09:22:55;;;;;;;;;;;9.70;99.90;;;;;;5085170;27;20022;-69
2022/03/14 09:25:21;;;;;;;;;;;9.70;99.90;;;;;;5083620;27;20004;-68
2022/03/14 09:27:48;;;;;;;;;;;9.70;99.90;;;;;;5088568;27;19923;-67
2022/03/14 09:30:14;;;;;;;;;;;9.70;99.90;;;;;;5056191;27;19920;-68
2022/03/14 09:32:40;;;;;;;;;;;9.70;99.90;;;;;;5064324;27;19923;-68
2022/03/14 09:35:07;;;;;;;;;;;9.70;99.90;;;;;;5057163;27;20770;-67
2022/03/14 09:37:34;;;;;;;;;;;9.80;99.90;;;;;;5058625;27;19928;-72
2022/03/14 09:40:00;;;;;;;;;;;9.80;99.90;;;;;;5084576;27;20264;-72
2022/03/14 09:42:26;;;;;;;;;;;9.80;99.90;;;;;;5079026;27;20044;-71
2022/03/14 09:44:55;;;;;;;;;;;9.80;99.90;;;;;;5119599;27;20009;-71
2022/03/14 09:47:24;;;;;;;;;;;9.80;99.90;;;;;;5097025;27;19915;-71
2022/03/14 09:49:56;;;;;;;;;;;9.80;99.90;;;;;;5092931;27;20264;-71
2022/03/14 09:52:22;;;;;;;;;;;9.80;99.90;;;;;;5103904;27;20360;-71
2022/03/14 09:54:48;;;;;;;;;;;9.80;99.90;;;;;;5094412;27;19923;-70
2022/03/14 09:57:14;;;;;;;;;;;9.80;99.90;;;;;;5110616;27;19919;-70
2022/03/14 09:59:40;;;;;;;;;;;9.80;99.90;;;;;;5097789;27;19960;-72
2022/03/14 10:02:07;;;;;;;;;;;9.80;99.90;;;;;;5104287;27;20363;-71
2022/03/14 10:04:33;;;;;;;;;;;9.90;99.90;;;;;;5118639;27;19931;-69
2022/03/14 10:06:58;;;;;;;;;;;9.90;99.90;;;;;;5091878;27;20395;-74
2022/03/14 10:09:23;;;;;;;;;;;9.90;99.90;;;;;;5076174;27;20483;-74
2022/03/14 10:11:49;;;;;;;;;;;10.00;99.90;;;;;;5089162;28;19915;-70
2022/03/14 10:14:19;;;;;;;;;;;10.00;99.90;;;;;;5092369;27;19915;-68
2022/03/14 10:16:45;;;;;;;;;;;10.00;99.90;;;;;;5080088;28;20014;-69
2022/03/14 10:19:10;;;;;;;;;;;10.10;99.90;;;;;;5118870;27;20002;-74
2022/03/14 10:21:42;;;;;;;;;;;10.10;99.90;;;;;;5084376;27;19923;-73
2022/03/14 10:24:08;;;;;;;;;;;10.20;99.90;;;;;;5092426;27;19950;-67
2022/03/14 10:26:35;;;;;;;;;;;10.30;99.90;;;;;;5098369;28;20071;-68
2022/03/14 10:29:01;;;;;;;;;;;10.30;99.90;;;;;;5088396;27;20557;-68
2022/03/14 10:31:31;;;;;;;;;;;10.40;99.90;;;;;;5099772;27;19919;-69
2022/03/14 10:34:03;;;;;;;;;;;10.40;99.90;;;;;;5096047;27;20393;-68
2022/03/14 10:36:38;;;;;;;;;;;10.40;99.90;;;;;;5083944;27;19919;-68
2022/03/14 10:39:15;;;;;;;;;;;10.50;99.90;;;;;;5121774;27;19923;-68
2022/03/14 10:41:40;;;;;;;;;;;10.50;99.90;;;;;;5096517;27;19958;-68
2022/03/14 10:44:07;;;;;;;;;;;10.50;99.90;;;;;;5111571;27;20008;-68
2022/03/14 10:46:37;;;;;;;;;;;10.50;99.90;;;;;;5107052;27;19915;-68
2022/03/14 10:49:03;;;;;;;;;;;10.50;99.90;;;;;;5076366;27;19921;-68
2022/03/14 10:51:29;;;;;;;;;;;10.50;99.90;;;;;;5088019;27;19915;-67
2022/03/14 10:53:55;;;;;;;;;;;10.50;99.90;;;;;;5093175;28;19941;-68
2022/03/14 10:56:27;;;;;;;;;;;10.40;99.90;;;;;;5098418;27;19930;-68
2022/03/14 10:58:55;;;;;;;;;;;10.40;99.90;;;;;;5097157;28;20002;-68
2022/03/14 11:01:21;;;;;;;;;;;10.40;99.90;;;;;;5094669;27;19960;-68
2022/03/14 11:03:47;;;;;;;;;;;10.40;99.90;;;;;;5103804;27;20011;-68
2022/03/14 11:06:17;;;;;;;;;;;10.40;99.90;;;;;;5118662;27;19930;-68
2022/03/14 11:08:47;;;;;;;;;;;10.40;99.90;;;;;;5095822;27;20445;-69
2022/03/14 11:11:14;;;;;;;;;;;10.30;99.90;;;;;;5083768;27;19931;-67
2022/03/14 11:13:42;;;;;;;;;;;10.30;99.90;;;;;;5100022;27;20047;-68
2022/03/14 11:16:12;;;;;;;;;;;10.40;99.90;;;;;;5093748;27;19989;-72
2022/03/14 11:18:38;;;;;;;;;;;10.50;99.90;;;;;;5116367;27;19924;-69
2022/03/14 11:21:08;;;;;;;;;;;10.50;99.90;;;;;;5096783;27;20411;-68
2022/03/14 11:23:34;;;;;;;;;;;10.50;99.90;;;;;;5086663;27;19915;-68
2022/03/14 11:26:00;;;;;;;;;;;10.60;99.90;;;;;;5109591;27;20356;-68
2022/03/14 11:28:26;;;;;;;;;;;10.60;99.90;;;;;;5117824;27;19923;-68
2022/03/14 11:30:59;;;;;;;;;;;10.60;99.90;;;;;;5099567;27;19942;-68
2022/03/14 11:33:25;;;;;;;;;;;10.60;99.90;;;;;;5109194;27;19916;-68
2022/03/14 11:35:51;;;;;;;;;;;10.60;99.90;;;;;;5088824;27;19920;-68
2022/03/14 11:38:17;;;;;;;;;;;10.70;99.90;;;;;;5112129;27;19996;-69
2022/03/14 11:40:42;;;;;;;;;;;10.70;99.90;;;;;;5092554;27;21619;-69
2022/03/14 11:43:09;;;;;;;;;;;10.80;99.90;;;;;;5089615;27;19919;-69
2022/03/14 11:45:36;;;;;;;;;;;10.80;99.90;;;;;;5088540;27;19927;-68
2022/03/14 11:48:04;;;;;;;;;;;10.80;99.90;;;;;;5093259;28;19972;-68
2022/03/14 11:50:40;;;;;;;;;;;10.90;99.90;;;;;;5089583;27;20184;-68
2022/03/14 11:53:05;;;;;;;;;;;10.80;99.90;;;;;;5105103;27;20058;-68
2022/03/14 11:55:31;;;;;;;;;;;10.80;99.90;;;;;;5098032;28;20474;-68
2022/03/14 11:57:57;;;;;;;;;;;10.90;99.90;;;;;;5100795;27;19926;-68
2022/03/14 12:00:32;;;;;;;;;;;10.90;99.90;;;;;;5109844;27;19919;-68
2022/03/14 12:03:07;;;;;;;;;;;10.90;99.90;;;;;;5090175;27;19919;-69
2022/03/14 12:05:32;;;;;;;;;;;11.00;99.90;;;;;;5102692;27;19969;-68
2022/03/14 12:08:21;;;;;;;;;;;11.10;99.90;;;;;;5083401;27;19923;-69
2022/03/14 12:10:47;;;;;;;;;;;11.10;99.90;;;;;;5042848;28;20000;-68
2022/03/14 12:13:32;;;;;;;;;;;11.20;99.90;;;;;;5091288;27;20144;-68
2022/03/14 12:15:58;;;;;;;;;;;11.30;99.90;;;;;;5121991;22;19957;-67
2022/03/14 12:18:27;;;;;;;;;;;11.30;99.90;;;;;;5079069;28;19996;-66
2022/03/14 12:20:54;;;;;;;;;;;11.40;99.90;;;;;;5092702;28;19923;-66
2022/03/14 12:23:22;;;;;;;;;;;11.40;99.90;;;;;;5090197;28;19931;-66
2022/03/14 12:25:48;;;;;;;;;;;11.50;99.90;;;;;;5093647;28;20494;-67
2022/03/14 12:28:31;;;;;;;;;;;11.50;99.90;;;;;;5094465;28;20285;-66
2022/03/14 12:30:57;;;;;;;;;;;11.60;99.90;;;;;;5092286;28;20066;-67
2022/03/14 12:33:31;;;;;;;;;;;11.60;99.90;;;;;;5088603;28;20352;-67
2022/03/14 12:35:57;;;;;;;;;;;11.70;99.90;;;;;;5075275;28;19961;-66
2022/03/14 12:38:22;;;;;;;;;;;11.70;99.90;;;;;;5062468;28;19974;-67
2022/03/14 12:40:48;;;;;;;;;;;11.70;99.90;;;;;;5050240;28;20429;-67
2022/03/14 12:43:21;;;;;;;;;;;11.70;99.90;;;;;;5094137;28;20240;-66
2022/03/14 12:45:47;;;;;;;;;;;11.80;99.90;;;;;;5067079;28;19916;-67
2022/03/14 12:48:24;;;;;;;;;;;11.80;99.90;;;;;;5089755;28;19924;-66
2022/03/14 12:50:50;;;;;;;;;;;11.80;99.90;;;;;;5083181;28;19915;-66
2022/03/14 12:53:29;;;;;;;;;;;11.80;99.90;;;;;;5076496;28;20390;-67
2022/03/14 12:55:55;;;;;;;;;;;11.80;99.90;;;;;;5098100;28;19993;-66
2022/03/14 12:58:27;;;;;;;;;;;11.90;99.90;;;;;;5087471;28;19924;-66
2022/03/14 13:01:12;;;;;;;;;;;12.00;99.90;;;;;;5059792;28;20054;-67
2022/03/14 13:03:37;;;;;;;;;;;12.00;99.90;;;;;;5084496;28;20270;-66
2022/03/14 13:06:04;;;;;;;;;;;12.10;99.90;;;;;;5090502;28;19935;-67
2022/03/14 13:08:29;;;;;;;;;;;12.10;99.90;;;;;;5090765;28;19950;-67
2022/03/14 13:11:00;;;;;;;;;;;12.20;99.90;;;;;;5077868;28;20049;-66
2022/03/14 13:13:27;;;;;;;;;;;12.30;99.90;;;;;;5094584;28;20390;-66
2022/03/14 13:16:06;;;;;;;;;;;12.30;99.90;;;;;;5076812;28;20391;-67
2022/03/14 13:18:33;;;;;;;;;;;12.30;99.90;;;;;;5074012;28;19967;-66
2022/03/14 13:20:59;;;;;;;;;;;12.40;99.90;;;;;;5087643;28;19927;-66
2022/03/14 13:23:25;;;;;;;;;;;12.50;99.90;;;;;;5072362;28;20355;-67
2022/03/14 13:25:51;;;;;;;;;;;12.50;99.90;;;;;;5092418;28;19916;-68
2022/03/14 13:28:32;;;;;;;;;;;12.60;99.90;;;;;;5098846;28;19920;-68
2022/03/14 13:30:59;;;;;;;;;;;12.60;99.90;;;;;;5093864;28;19916;-68
2022/03/14 13:33:26;;;;;;;;;;;12.60;99.90;;;;;;5078137;28;19924;-72
2022/03/14 13:35:53;;;;;;;;;;;12.70;99.90;;;;;;5054231;28;19916;-79
2022/03/14 13:38:29;;;;;;;;;;;12.80;99.90;;;;;;5061788;28;19976;-69
2022/03/14 13:40:55;;;;;;;;;;;12.80;99.90;;;;;;5074002;28;20429;-67
2022/03/14 13:43:21;;;;;;;;;;;12.90;99.90;;;;;;5096221;28;19923;-67
2022/03/14 13:45:46;;;;;;;;;;;12.90;99.90;;;;;;5080402;28;19935;-67
2022/03/14 13:48:12;;;;;;;;;;;13.00;99.90;;;;;;5097146;28;19931;-68
2022/03/14 13:50:44;;;;;;;;;;;13.10;99.90;;;;;;5080299;28;19920;-66
2022/03/14 13:53:20;;;;;;;;;;;13.00;99.90;;;;;;5103584;28;20343;-67
2022/03/14 13:55:56;;;;;;;;;;;12.90;99.90;;;;;;5096558;28;20022;-67
2022/03/14 13:58:25;;;;;;;;;;;12.70;99.90;;;;;;5067953;28;20443;-67
2022/03/14 14:00:54;;;;;;;;;;;12.80;99.90;;;;;;5065784;28;20150;-66
2022/03/14 14:03:23;;;;;;;;;;;12.80;99.90;;;;;;5092177;28;19962;-67
2022/03/14 14:05:50;;;;;;;;;;;12.80;99.90;;;;;;5080813;28;20063;-67
2022/03/14 14:08:34;;;;;;;;;;;12.80;99.90;;;;;;5073336;28;20038;-67
2022/03/14 14:10:59;;;;;;;;;;;12.90;99.90;;;;;;5075627;28;20022;-66
2022/03/14 14:13:26;;;;;;;;;;;13.00;99.90;;;;;;5084375;28;20023;-67
2022/03/14 14:15:53;;;;;;;;;;;13.20;99.90;;;;;;5094329;28;19978;-67
2022/03/14 14:18:23;;;;;;;;;;;13.10;95.80;;;;;;5070277;28;19915;-66
2022/03/14 14:20:50;;;;;;;;;;;13.00;93.70;;;;;;5094757;28;20220;-66
2022/03/14 14:23:17;;;;;;;;;;;12.90;95.50;;;;;;5080629;28;19920;-66